Time;durP1;ratioP1;P1;durP2;ratioP2;P2;SDS_P1;SDS_P2;PMS_P1;PMS_P2;Temp;Humidity;BMP_temperature;BMP_pressure;BME280_temperature;BME280_humidity;BME280_pressure;Samples;Min_cycle;Max_cycle;Signal;HPM_P1;HPM_P2
2023/12/19 00:02:01;;;;;;;43.13;22.98;;;;;;;1.14;100.00;101250.94;6059596;23;20029;-85
2023/12/19 00:04:28;;;;;;;50.17;24.42;;;;;;;1.14;100.00;101243.97;6108114;23;20034;-85
2023/12/19 00:06:55;;;;;;;45.70;24.38;;;;;;;1.14;100.00;101235.25;6106369;23;20027;-87
2023/12/19 00:09:22;;;;;;;46.22;23.88;;;;;;;1.14;100.00;101240.50;6060362;23;20018;-85
2023/12/19 00:11:49;;;;;;;47.47;23.25;;;;;;;1.11;100.00;101233.59;6083348;23;20122;-84
2023/12/19 00:14:16;;;;;;;50.03;23.15;;;;;;;1.02;100.00;101237.31;6108105;23;20034;-87
2023/12/19 00:16:43;;;;;;;44.60;22.48;;;;;;;1.02;100.00;101237.31;6107790;23;20430;-85
2023/12/19 00:19:10;;;;;;;48.67;23.58;;;;;;;1.02;100.00;101249.53;6107012;23;20358;-85
2023/12/19 00:21:37;;;;;;;64.20;23.08;;;;;;;0.96;99.84;101258.38;6133421;23;20653;-85
2023/12/19 00:24:04;;;;;;;80.45;23.52;;;;;;;0.94;99.49;101268.06;6082621;23;20029;-84
2023/12/19 00:26:31;;;;;;;70.57;24.92;;;;;;;0.93;100.00;101260.22;6083642;23;20030;-85
2023/12/19 00:28:58;;;;;;;76.85;24.90;;;;;;;0.91;100.00;101255.03;6085803;23;20030;-85
2023/12/19 00:31:26;;;;;;;60.72;23.80;;;;;;;0.92;100.00;101259.38;6047527;23;20045;-85
2023/12/19 00:33:53;;;;;;;67.25;24.13;;;;;;;0.86;100.00;101255.13;6090320;23;20026;-85
2023/12/19 00:36:21;;;;;;;57.90;23.40;;;;;;;0.88;100.00;101257.72;6109260;23;20031;-85
2023/12/19 00:38:49;;;;;;;42.47;22.17;;;;;;;0.91;100.00;101262.03;6085110;23;20026;-85
2023/12/19 00:41:16;;;;;;;46.10;21.25;;;;;;;0.93;100.00;101258.47;6084881;23;20090;-85
2023/12/19 00:43:44;;;;;;;66.45;23.17;;;;;;;0.89;100.00;101245.50;6085823;23;20037;-85
2023/12/19 00:46:11;;;;;;;46.10;22.20;;;;;;;0.91;100.00;101244.56;6038001;23;20068;-84
2023/12/19 00:48:38;;;;;;;51.45;22.00;;;;;;;0.92;100.00;101245.44;6061996;23;20077;-84
2023/12/19 00:51:10;;;;;;;48.50;22.23;;;;;;;0.87;100.00;101240.31;6037187;23;20034;-85
2023/12/19 00:53:37;;;;;;;42.20;21.73;;;;;;;0.88;100.00;101243.78;6037366;23;20018;-85
2023/12/19 00:56:11;;;;;;;46.35;21.55;;;;;;;0.85;100.00;101239.50;6061205;23;20049;-85
2023/12/19 00:58:39;;;;;;;52.67;21.42;;;;;;;0.82;100.00;101235.22;6085307;23;20026;-85
2023/12/19 01:01:06;;;;;;;40.72;21.67;;;;;;;0.81;100.00;101235.25;6108617;23;20454;-84
2023/12/19 01:03:34;;;;;;;45.10;23.50;;;;;;;0.80;100.00;101229.16;6061538;23;20015;-84
2023/12/19 01:06:02;;;;;;;44.15;22.25;;;;;;;0.79;100.00;101229.19;6084351;23;20050;-85
2023/12/19 01:08:30;;;;;;;54.45;21.42;;;;;;;0.79;100.00;101227.44;6085193;23;20034;-85
2023/12/19 01:10:57;;;;;;;69.00;22.60;;;;;;;0.83;100.00;101229.06;6085071;23;20673;-85
2023/12/19 01:13:24;;;;;;;46.03;22.05;;;;;;;0.82;100.00;101221.28;6061392;23;20038;-84
2023/12/19 01:15:51;;;;;;;55.00;21.90;;;;;;;0.80;100.00;101233.53;6061031;23;20033;-84
2023/12/19 01:18:18;;;;;;;64.97;22.30;;;;;;;0.82;99.46;101243.06;6109828;23;20363;-86
2023/12/19 01:20:47;;;;;;;44.15;21.73;;;;;;;0.81;99.59;101237.84;6085183;23;20347;-84
2023/12/19 01:23:15;;;;;;;76.75;24.08;;;;;;;0.75;100.00;101253.72;6061422;23;20116;-85
2023/12/19 01:25:42;;;;;;;44.60;21.75;;;;;;;0.75;99.97;101251.94;6037119;23;20033;-84
2023/12/19 01:28:10;;;;;;;37.92;20.52;;;;;;;0.74;100.00;101244.13;6085896;23;20034;-87
2023/12/19 01:30:39;;;;;;;41.88;21.05;;;;;;;0.78;100.00;101230.94;6084944;23;20100;-84
2023/12/19 01:33:09;;;;;;;37.35;20.98;;;;;;;0.85;100.00;101210.75;6084609;23;20085;-85
2023/12/19 01:35:36;;;;;;;38.35;20.55;;;;;;;0.86;100.00;101208.06;6084325;23;20037;-85
2023/12/19 01:38:03;;;;;;;37.33;20.08;;;;;;;0.84;100.00;101204.66;6108442;23;20048;-84
2023/12/19 01:40:31;;;;;;;39.13;21.10;;;;;;;0.81;99.27;101209.09;6108835;23;20033;-84
2023/12/19 01:42:59;;;;;;;49.92;21.30;;;;;;;0.80;98.94;101225.69;6060250;23;20050;-84
2023/12/19 01:45:27;;;;;;;37.60;21.08;;;;;;;0.79;98.10;101231.78;6060943;23;20030;-85
2023/12/19 01:47:54;;;;;;;47.33;21.35;;;;;;;0.81;98.37;101235.25;6061092;23;20066;-85
2023/12/19 01:50:21;;;;;;;47.13;21.05;;;;;;;0.75;98.67;101238.03;6061431;23;20018;-85
2023/12/19 01:52:54;;;;;;;46.10;20.38;;;;;;;0.71;98.76;101233.75;6036886;23;20018;-84
2023/12/19 01:55:22;;;;;;;43.92;21.25;;;;;;;0.77;99.38;101229.25;6085523;23;20022;-84
2023/12/19 01:57:49;;;;;;;50.55;20.63;;;;;;;0.70;99.17;101238.13;6036403;23;20023;-84
2023/12/19 02:00:16;;;;;;;42.00;20.70;;;;;;;0.71;98.93;101225.91;6083563;23;20037;-84
2023/12/19 02:02:44;;;;;;;33.97;19.50;;;;;;;0.70;98.78;101232.06;6110116;23;20038;-84
2023/12/19 02:05:14;;;;;;;43.67;19.83;;;;;;;0.66;98.82;101246.94;6107719;23;20042;-84
2023/12/19 02:07:40;;;;;;;43.67;20.35;;;;;;;0.68;98.82;101237.31;6036876;23;20081;-85
2023/12/19 02:10:07;;;;;;;39.50;20.40;;;;;;;0.71;99.35;101236.38;6059853;23;20029;-85
2023/12/19 02:12:35;;;;;;;44.15;20.83;;;;;;;0.67;99.15;101235.59;6037049;23;20029;-84
2023/12/19 02:15:02;;;;;;;57.67;21.65;;;;;;;0.69;99.36;101233.81;6109052;23;20403;-84
2023/12/19 02:17:30;;;;;;;36.38;20.30;;;;;;;0.67;99.53;101229.53;6108360;23;20042;-84
2023/12/19 02:19:57;;;;;;;45.75;21.85;;;;;;;0.70;99.74;101232.06;6108291;23;20019;-84
2023/12/19 02:22:24;;;;;;;40.45;20.30;;;;;;;0.70;99.05;101217.22;6108747;23;20093;-84
2023/12/19 02:24:50;;;;;;;36.40;20.77;;;;;;;0.71;99.00;101199.78;6060623;23;20489;-84
2023/12/19 02:27:20;;;;;;;35.78;20.75;;;;;;;0.76;98.99;101193.50;6108499;23;20049;-84
2023/12/19 02:29:47;;;;;;;40.00;22.00;;;;;;;0.78;98.82;101193.50;6108565;23;20026;-84
2023/12/19 02:32:14;;;;;;;44.10;21.33;;;;;;;0.68;98.22;101192.88;6084432;23;20056;-84
2023/12/19 02:34:41;;;;;;;36.83;20.27;;;;;;;0.69;98.49;101184.16;6037675;23;20030;-84
2023/12/19 02:37:08;;;;;;;41.45;22.00;;;;;;;0.68;98.21;101192.00;6107158;23;20026;-84
2023/12/19 02:39:35;;;;;;;46.38;21.92;;;;;;;0.68;97.63;101182.41;6085266;23;20459;-84
2023/12/19 02:42:02;;;;;;;40.67;20.92;;;;;;;0.68;97.33;101179.78;6085183;23;20029;-84
2023/12/19 02:44:28;;;;;;;34.28;19.38;;;;;;;0.72;97.43;101177.97;6060297;23;20022;-84
2023/12/19 02:46:55;;;;;;;38.75;19.70;;;;;;;0.71;97.27;101174.47;6083414;23;20050;-84
2023/12/19 02:49:22;;;;;;;35.35;19.40;;;;;;;0.67;97.07;101192.91;6084013;23;20026;-84
2023/12/19 02:51:49;;;;;;;36.38;20.05;;;;;;;0.65;96.04;101208.63;6084158;23;20027;-84
2023/12/19 02:54:16;;;;;;;40.25;21.08;;;;;;;0.68;96.09;101207.69;6084683;23;20513;-85
2023/12/19 02:56:43;;;;;;;38.92;20.58;;;;;;;0.70;96.58;101193.69;6084547;23;20019;-84
2023/12/19 02:59:10;;;;;;;34.17;18.98;;;;;;;0.68;96.45;101182.41;6060318;23;20029;-84
2023/12/19 03:01:37;;;;;;;33.10;19.35;;;;;;;0.68;96.84;101189.41;6083984;23;20018;-84
2023/12/19 03:04:04;;;;;;;33.35;19.73;;;;;;;0.67;96.44;101177.25;6084216;23;20050;-84
2023/12/19 03:06:31;;;;;;;38.40;20.25;;;;;;;0.66;96.23;101165.91;6108287;23;20031;-84
2023/12/19 03:08:58;;;;;;;36.38;19.40;;;;;;;0.70;96.52;101166.69;6083389;23;20022;-84
2023/12/19 03:11:25;;;;;;;31.08;18.65;;;;;;;0.63;97.15;101159.00;6109325;23;20093;-84
2023/12/19 03:13:52;;;;;;;38.72;19.67;;;;;;;0.63;97.49;101158.13;6059417;23;20058;-84
2023/12/19 03:16:19;;;;;;;32.30;18.90;;;;;;;0.64;97.01;101157.25;6132026;23;20025;-84
2023/12/19 03:18:46;;;;;;;37.25;19.08;;;;;;;0.63;97.16;101142.47;6084995;23;20450;-84
2023/12/19 03:21:13;;;;;;;36.63;20.30;;;;;;;0.65;97.13;101136.28;6036326;23;20026;-84
2023/12/19 03:23:39;;;;;;;32.38;18.63;;;;;;;0.70;96.92;101130.09;6083356;23;20034;-84
2023/12/19 03:26:06;;;;;;;34.03;18.33;;;;;;;0.67;97.11;101130.19;6058839;23;20038;-84
2023/12/19 03:28:35;;;;;;;34.60;19.35;;;;;;;0.67;96.97;101143.25;6036113;23;20018;-84
2023/12/19 03:31:02;;;;;;;29.95;18.35;;;;;;;0.65;96.95;101135.44;6107025;23;20419;-86
2023/12/19 03:33:28;;;;;;;35.03;20.27;;;;;;;0.65;96.55;101136.28;6059466;23;20049;-85
2023/12/19 03:35:56;;;;;;;32.30;18.95;;;;;;;0.63;96.10;101140.69;6083079;23;20042;-84
2023/12/19 03:38:22;;;;;;;35.08;19.38;;;;;;;0.63;96.10;101145.06;6036302;23;20031;-87
2023/12/19 03:40:49;;;;;;;32.97;19.88;;;;;;;0.62;96.59;101138.13;6059938;23;20450;-84
2023/12/19 03:43:16;;;;;;;34.22;18.55;;;;;;;0.62;97.15;101145.97;6060052;23;20032;-85
2023/12/19 03:45:43;;;;;;;37.03;19.90;;;;;;;0.59;97.21;101149.53;6060933;23;20025;-84
2023/12/19 03:48:10;;;;;;;32.35;19.67;;;;;;;0.59;97.30;101153.91;6083454;23;20144;-84
2023/12/19 03:50:37;;;;;;;35.78;19.70;;;;;;;0.61;97.45;101152.09;6058618;23;20022;-85
2023/12/19 03:53:04;;;;;;;33.40;18.35;;;;;;;0.59;97.48;101138.22;6060003;23;20451;-84
2023/12/19 03:55:30;;;;;;;34.10;19.52;;;;;;;0.60;98.39;101126.88;6132178;23;20029;-84
2023/12/19 03:57:57;;;;;;;39.90;19.80;;;;;;;0.60;98.22;101126.88;6059845;23;20022;-85
2023/12/19 04:00:24;;;;;;;34.75;19.88;;;;;;;0.63;98.23;101125.00;6107905;23;20462;-84
2023/12/19 04:02:51;;;;;;;30.58;17.58;;;;;;;0.63;98.93;101116.31;6083146;23;20030;-84
2023/12/19 04:05:18;;;;;;;32.72;19.10;;;;;;;0.61;99.42;101107.66;6059502;23;20027;-84
2023/12/19 04:07:45;;;;;;;51.13;20.73;;;;;;;0.64;99.48;101105.84;6060072;23;20038;-84
2023/12/19 04:10:12;;;;;;;38.58;21.00;;;;;;;0.65;98.99;101109.31;6083207;23;20530;-84
2023/12/19 04:12:39;;;;;;;40.35;18.88;;;;;;;0.63;99.39;101106.72;6108260;23;20105;-86
2023/12/19 04:15:08;;;;;;;37.85;18.95;;;;;;;0.60;99.51;101100.72;6084320;23;20094;-84
2023/12/19 04:17:35;;;;;;;40.70;20.23;;;;;;;0.62;99.35;101089.31;6035748;23;20638;-84
2023/12/19 04:20:03;;;;;;;55.15;21.98;;;;;;;0.64;99.51;101089.31;6107808;23;20449;-85
2023/12/19 04:22:31;;;;;;;40.65;22.00;;;;;;;0.64;99.55;101078.84;6083189;23;20041;-84
2023/12/19 04:24:57;;;;;;;38.10;20.42;;;;;;;0.64;99.63;101065.78;6108464;23;20089;-84
2023/12/19 04:27:24;;;;;;;42.90;20.33;;;;;;;0.68;99.54;101074.38;6083616;23;20653;-84
2023/12/19 04:29:54;;;;;;;42.15;21.23;;;;;;;0.57;99.62;101080.75;6082899;23;20057;-84
2023/12/19 04:32:22;;;;;;;105.63;25.38;;;;;;;0.56;99.25;101097.34;6132038;23;20026;-84
2023/12/19 04:34:49;;;;;;;35.45;19.73;;;;;;;0.50;99.11;101088.81;6083052;23;20022;-84
2023/12/19 04:37:16;;;;;;;40.35;20.50;;;;;;;0.52;98.49;101076.56;6083770;23;20022;-84
2023/12/19 04:39:43;;;;;;;37.22;19.23;;;;;;;0.55;98.15;101082.53;6059507;23;20018;-85
2023/12/19 04:42:12;;;;;;;27.13;17.65;;;;;;;0.54;97.71;101087.84;6083636;23;20325;-84
2023/12/19 04:44:39;;;;;;;32.15;18.90;;;;;;;0.53;97.12;101089.56;6107528;23;20423;-84
2023/12/19 04:47:06;;;;;;;35.13;19.95;;;;;;;0.57;97.53;101077.28;6059552;23;20081;-84
2023/12/19 04:49:32;;;;;;;31.50;19.27;;;;;;;0.51;97.36;101087.91;6083380;23;20014;-84
2023/12/19 04:51:59;;;;;;;47.15;20.27;;;;;;;0.52;97.80;101089.63;6107542;23;20517;-84
2023/12/19 04:54:26;;;;;;;35.63;19.52;;;;;;;0.52;97.85;101087.00;6056318;23;20029;-84
2023/12/19 04:56:53;;;;;;;31.65;18.40;;;;;;;0.50;98.38;101078.34;6058105;23;20022;-85
2023/12/19 04:59:20;;;;;;;34.63;20.13;;;;;;;0.52;98.86;101071.34;6107263;23;20026;-84
2023/12/19 05:01:47;;;;;;;33.85;19.27;;;;;;;0.53;98.86;101065.19;6060159;23;20046;-87
2023/12/19 05:04:14;;;;;;;38.80;19.23;;;;;;;0.48;99.24;101067.06;6035835;23;20030;-84
2023/12/19 05:06:42;;;;;;;44.00;19.70;;;;;;;0.53;98.78;101073.88;6059479;23;20026;-84
2023/12/19 05:09:09;;;;;;;52.17;19.08;;;;;;;0.51;98.57;101073.09;6082951;23;20038;-86
2023/12/19 05:11:36;;;;;;;42.20;20.20;;;;;;;0.50;98.98;101079.19;6036554;23;20021;-84
2023/12/19 05:14:03;;;;;;;36.60;20.20;;;;;;;0.47;99.54;101066.22;6060867;23;20014;-85
2023/12/19 05:16:30;;;;;;;36.50;19.63;;;;;;;0.50;99.55;101063.53;6085104;23;20046;-84
2023/12/19 05:18:57;;;;;;;37.03;19.30;;;;;;;0.54;98.98;101053.84;6059856;23;20018;-84
2023/12/19 05:21:24;;;;;;;37.08;19.23;;;;;;;0.55;99.13;101059.03;6084514;23;20061;-85
2023/12/19 05:23:50;;;;;;;33.85;19.48;;;;;;;0.55;98.31;101069.47;6086248;23;20022;-84
2023/12/19 05:26:17;;;;;;;40.33;21.02;;;;;;;0.52;98.66;101064.34;6109498;23;20042;-85
2023/12/19 05:28:44;;;;;;;37.50;19.63;;;;;;;0.53;99.17;101065.19;6108138;23;20023;-85
2023/12/19 05:31:12;;;;;;;34.20;19.90;;;;;;;0.57;98.84;101064.22;6085058;23;20025;-84
2023/12/19 05:33:40;;;;;;;33.67;18.95;;;;;;;0.54;98.48;101074.78;6061013;23;20077;-84
2023/12/19 05:36:07;;;;;;;31.67;19.23;;;;;;;0.53;97.94;101084.34;6084993;23;20031;-84
2023/12/19 05:38:34;;;;;;;35.03;19.75;;;;;;;0.49;97.84;101085.34;6036530;23;20018;-84
2023/12/19 05:41:02;;;;;;;39.80;20.42;;;;;;;0.54;97.82;101083.47;6083944;23;20030;-84
2023/12/19 05:43:29;;;;;;;38.67;19.73;;;;;;;0.54;98.07;101080.84;6109522;23;20105;-85
2023/12/19 05:45:55;;;;;;;37.08;20.58;;;;;;;0.53;98.68;101080.88;6036855;23;20093;-84
2023/12/19 05:48:22;;;;;;;34.75;19.02;;;;;;;0.53;98.67;101073.03;6084841;23;20332;-85
2023/12/19 05:50:50;;;;;;;38.53;19.83;;;;;;;0.58;98.30;101077.22;6084110;23;20049;-84
2023/12/19 05:53:17;;;;;;;35.28;18.58;;;;;;;0.57;98.14;101077.28;6060293;23;20796;-85
2023/12/19 05:55:44;;;;;;;38.05;20.40;;;;;;;0.58;98.11;101077.22;6132739;23;20018;-84
2023/12/19 05:58:11;;;;;;;37.63;20.80;;;;;;;0.54;98.54;101075.63;6109201;23;20181;-85
2023/12/19 06:00:38;;;;;;;33.85;19.98;;;;;;;0.60;98.17;101078.06;6036323;23;20104;-84
2023/12/19 06:03:05;;;;;;;41.10;21.95;;;;;;;0.59;98.14;101065.91;6108953;23;20026;-84
2023/12/19 06:05:32;;;;;;;40.00;21.52;;;;;;;0.61;98.54;101061.50;6060997;23;20042;-84
2023/12/19 06:08:00;;;;;;;35.53;19.63;;;;;;;0.65;98.17;101068.31;6108688;23;20029;-84
2023/12/19 06:10:27;;;;;;;34.85;20.23;;;;;;;0.70;98.27;101056.91;6060615;23;20057;-84
2023/12/19 06:12:54;;;;;;;32.30;19.33;;;;;;;0.74;98.08;101056.78;6083985;23;20023;-84
2023/12/19 06:15:21;;;;;;;37.88;20.00;;;;;;;0.73;97.98;101051.56;6060569;23;20391;-87
2023/12/19 06:17:49;;;;;;;34.33;20.08;;;;;;;0.73;97.92;101052.44;6036478;23;20101;-84
2023/12/19 06:20:16;;;;;;;32.38;17.75;;;;;;;0.74;97.93;101071.56;6108539;23;20022;-84
2023/12/19 06:22:43;;;;;;;34.30;19.63;;;;;;;0.72;97.80;101082.09;6084173;23;20057;-88
2023/12/19 06:25:10;;;;;;;34.53;19.92;;;;;;;0.72;97.88;101076.03;6060447;23;20510;-85
2023/12/19 06:27:37;;;;;;;30.88;17.25;;;;;;;0.79;97.99;101069.69;6083481;23;20030;-84
2023/12/19 06:30:05;;;;;;;32.72;16.42;;;;;;;0.78;98.53;101057.53;6059697;23;20412;-85
2023/12/19 06:32:47;;;;;;;34.30;17.55;;;;;;;0.82;98.78;101067.88;6041774;23;20412;-84
2023/12/19 06:35:14;;;;;;;30.33;17.45;;;;;;;0.83;98.91;101071.34;6056108;23;20658;-84
2023/12/19 06:37:41;;;;;;;37.88;20.20;;;;;;;0.75;98.84;101070.69;6034649;23;20042;-81
2023/12/19 06:40:08;;;;;;;41.75;23.10;;;;;;;0.78;99.04;101081.06;6015397;23;20408;-81
2023/12/19 06:42:36;;;;;;;40.10;21.02;;;;;;;0.77;99.11;101079.38;6077920;23;20176;-84
2023/12/19 06:45:03;;;;;;;30.50;18.00;;;;;;;0.79;99.21;101090.59;6059560;23;20022;-81
2023/12/19 06:47:30;;;;;;;32.25;17.67;;;;;;;0.81;99.24;101089.66;6083291;23;20086;-81
2023/12/19 06:49:57;;;;;;;30.50;18.10;;;;;;;0.79;99.59;101085.38;6081261;23;22308;-81
2023/12/19 06:52:24;;;;;;;32.90;17.17;;;;;;;0.79;99.88;101077.53;6059151;23;20038;-87
2023/12/19 06:54:52;;;;;;;36.45;17.38;;;;;;;0.80;99.59;101069.66;6058696;23;20080;-86
2023/12/19 06:57:19;;;;;;;32.33;17.27;;;;;;;0.79;100.00;101065.34;6108033;23;20034;-87
2023/12/19 06:59:46;;;;;;;37.10;18.73;;;;;;;0.84;99.72;101058.22;6060290;23;20414;-87
2023/12/19 07:02:12;;;;;;;33.95;19.17;;;;;;;0.88;99.59;101063.38;6082931;23;20026;-87
2023/12/19 07:04:39;;;;;;;30.70;19.05;;;;;;;0.86;99.65;101066.00;6072413;23;20065;-87
2023/12/19 07:07:06;;;;;;;35.58;17.17;;;;;;;0.87;99.67;101059.91;6079499;23;20018;-87
2023/12/19 07:09:33;;;;;;;35.33;19.23;;;;;;;0.84;99.60;101060.84;6063181;23;20030;-87
2023/12/19 07:12:03;;;;;;;32.78;18.63;;;;;;;0.86;99.74;101061.63;6045457;23;20733;-87
2023/12/19 07:14:30;;;;;;;33.33;17.85;;;;;;;0.85;99.63;101064.31;6084790;23;20093;-91
2023/12/19 07:16:57;;;;;;;32.75;18.00;;;;;;;0.86;99.84;101061.63;6045227;23;20018;-89
2023/12/19 07:19:27;;;;;;;36.15;18.33;;;;;;;0.88;100.00;101052.91;6057462;23;20050;-87
2023/12/19 07:21:54;;;;;;;34.47;17.75;;;;;;;0.85;100.00;101036.41;6120228;23;20030;-86
2023/12/19 07:24:21;;;;;;;32.88;18.75;;;;;;;0.88;100.00;101039.81;6108324;23;20026;-87
2023/12/19 07:26:48;;;;;;;39.05;17.40;;;;;;;0.86;99.99;101039.84;6107891;23;20018;-86
2023/12/19 07:29:14;;;;;;;32.70;18.35;;;;;;;0.86;99.80;101029.41;6059010;23;20349;-90
2023/12/19 07:31:41;;;;;;;35.85;18.65;;;;;;;0.86;99.94;101039.84;6108967;23;20046;-88
2023/12/19 07:34:08;;;;;;;32.97;17.83;;;;;;;0.85;100.00;101044.25;6083683;23;20026;-87
2023/12/19 07:36:35;;;;;;;27.75;16.05;;;;;;;0.86;99.74;101045.94;6108517;23;20030;-87
2023/12/19 07:39:04;;;;;;;26.83;16.27;;;;;;;0.86;100.00;101045.94;6082546;23;20030;-86
2023/12/19 07:41:32;;;;;;;35.50;15.48;;;;;;;0.90;100.00;101041.50;6107136;23;20590;-85
2023/12/19 07:43:59;;;;;;;39.78;18.63;;;;;;;0.93;100.00;101046.63;6058989;23;20034;-90
2023/12/19 07:46:26;;;;;;;36.20;16.33;;;;;;;0.92;100.00;101054.53;6107109;23;20053;-87
2023/12/19 07:48:53;;;;;;;34.60;17.02;;;;;;;0.97;100.00;101048.25;6081391;23;20069;-88
2023/12/19 07:51:24;;;;;;;31.58;14.75;;;;;;;0.89;100.00;101055.50;6058687;23;20026;-92
2023/12/19 07:53:54;;;;;;;38.50;16.65;;;;;;;0.95;100.00;101055.28;6083005;23;20048;-92
2023/12/19 07:56:21;;;;;;;32.63;16.13;;;;;;;0.94;99.86;101043.13;6059294;23;20045;-91
2023/12/19 07:58:48;;;;;;;34.58;17.23;;;;;;;0.95;100.00;101034.38;6108816;23;20466;-90
2023/12/19 08:01:16;;;;;;;30.08;15.00;;;;;;;0.90;99.89;101033.66;6060186;23;20027;-92
2023/12/19 08:03:44;;;;;;;33.22;15.48;;;;;;;0.94;99.80;101029.19;6083690;23;20027;-91
2023/12/19 08:06:11;;;;;;;34.55;16.90;;;;;;;0.94;99.54;101026.56;6106933;23;20034;-88
2023/12/19 08:08:39;;;;;;;47.38;22.90;;;;;;;0.93;99.31;101036.16;6084496;23;20022;-91
2023/12/19 08:11:06;;;;;;;43.05;20.52;;;;;;;0.95;99.47;101038.75;6059192;23;20026;-91
2023/12/19 08:13:36;;;;;;;39.72;18.67;;;;;;;1.00;99.44;101022.03;6082751;23;20352;-91
2023/12/19 08:16:04;;;;;;;38.10;20.88;;;;;;;1.04;99.36;101014.91;6034883;23;20026;-90
2023/12/19 08:18:32;;;;;;;37.92;17.27;;;;;;;1.07;99.46;101018.31;6084604;23;20078;-91
2023/12/19 08:20:59;;;;;;;37.25;17.13;;;;;;;1.08;99.58;101020.03;6034613;23;20025;-90
2023/12/19 08:23:26;;;;;;;35.13;17.05;;;;;;;1.10;99.65;101021.75;6083721;23;20042;-91
2023/12/19 08:25:53;;;;;;;40.05;16.95;;;;;;;1.14;99.34;101021.59;6107688;23;20022;-89
2023/12/19 08:28:20;;;;;;;28.50;14.70;;;;;;;1.17;99.66;101015.41;6059939;23;20073;-90
2023/12/19 08:30:47;;;;;;;29.48;14.63;;;;;;;1.20;99.66;101021.41;6106504;23;20129;-90
2023/12/19 08:33:14;;;;;;;33.25;15.02;;;;;;;1.26;99.93;101005.50;6035906;23;20021;-91
2023/12/19 08:35:41;;;;;;;31.15;14.30;;;;;;;1.28;100.00;101008.09;6060840;23;20027;-92
2023/12/19 08:38:07;;;;;;;33.00;17.35;;;;;;;1.31;99.87;101000.16;6107701;23;20320;-90
2023/12/19 08:40:34;;;;;;;31.98;17.75;;;;;;;1.35;100.00;101003.50;6060533;23;20081;-91
2023/12/19 08:43:01;;;;;;;28.80;16.40;;;;;;;1.35;100.00;101004.38;6036480;23;20499;-92
2023/12/19 08:45:28;;;;;;;32.92;15.23;;;;;;;1.40;100.00;100997.25;6108100;23;20030;-87
2023/12/19 08:47:55;;;;;;;29.58;15.13;;;;;;;1.43;100.00;100997.16;6108682;23;20026;-91
2023/12/19 08:50:22;;;;;;;31.85;14.70;;;;;;;1.45;100.00;100992.72;6109129;23;20025;-91
2023/12/19 08:52:49;;;;;;;33.03;16.85;;;;;;;1.45;100.00;100984.88;6086022;23;20025;-91
2023/12/19 08:55:16;;;;;;;34.33;17.55;;;;;;;1.48;100.00;100990.00;6038449;23;20026;-91
2023/12/19 08:57:44;;;;;;;30.63;17.05;;;;;;;1.53;100.00;100997.72;6086185;23;20096;-91
2023/12/19 09:00:16;;;;;;;29.63;16.85;;;;;;;1.55;100.00;100995.88;6037019;23;20030;-90
2023/12/19 09:02:43;;;;;;;33.97;18.83;;;;;;;1.56;100.00;100986.28;6084973;23;20025;-93
2023/12/19 09:05:12;;;;;;;32.92;18.33;;;;;;;1.61;100.00;100987.84;6086465;23;20022;-91
2023/12/19 09:07:40;;;;;;;33.75;18.52;;;;;;;1.63;100.00;100982.53;6086100;23;20023;-90
2023/12/19 09:10:07;;;;;;;35.13;18.52;;;;;;;1.67;100.00;100976.31;6084550;23;20479;-90
2023/12/19 09:12:34;;;;;;;29.05;14.85;;;;;;;1.68;100.00;100985.84;6109674;23;20033;-91
2023/12/19 09:15:02;;;;;;;30.38;14.95;;;;;;;1.70;100.00;100989.28;6061982;23;20018;-90
2023/12/19 09:17:29;;;;;;;29.05;13.70;;;;;;;1.72;100.00;100984.84;6038379;23;20018;-90
2023/12/19 09:19:56;;;;;;;29.00;12.75;;;;;;;1.74;100.00;100968.19;6083828;23;20670;-90
2023/12/19 09:22:23;;;;;;;26.15;11.80;;;;;;;1.79;100.00;100972.44;6039112;23;20332;-89
2023/12/19 09:24:50;;;;;;;20.70;9.02;;;;;;;1.80;99.82;100974.13;6039357;23;20023;-90
2023/12/19 09:27:17;;;;;;;21.95;9.85;;;;;;;1.84;99.23;100986.22;6061144;23;20097;-89
2023/12/19 09:29:44;;;;;;;25.70;9.55;;;;;;;1.86;98.90;100971.31;6085960;23;20065;-90
2023/12/19 09:32:12;;;;;;;24.10;11.57;;;;;;;1.92;98.63;100976.34;6038178;23;20358;-89
2023/12/19 09:34:40;;;;;;;20.17;9.65;;;;;;;1.94;98.61;100977.16;6110483;23;20094;-88
2023/12/19 09:37:07;;;;;;;17.95;9.23;;;;;;;1.96;98.43;100996.28;6109547;23;20041;-89
2023/12/19 09:39:34;;;;;;;17.23;8.75;;;;;;;2.02;98.72;100992.59;6085856;23;20047;-90
2023/12/19 09:42:02;;;;;;;19.30;9.68;;;;;;;2.05;98.78;100985.47;6109940;23;20030;-89
2023/12/19 09:44:29;;;;;;;22.65;10.35;;;;;;;2.06;99.32;100975.84;6062501;23;20038;-87
2023/12/19 09:46:56;;;;;;;21.35;10.15;;;;;;;2.11;98.85;100982.66;6061858;23;20026;-89
2023/12/19 09:49:24;;;;;;;23.13;9.93;;;;;;;2.14;98.33;100979.06;6062316;23;20502;-89
2023/12/19 09:51:53;;;;;;;19.08;9.18;;;;;;;2.17;98.42;100971.09;6085357;23;20086;-89
2023/12/19 09:54:21;;;;;;;22.02;10.10;;;;;;;2.18;98.42;100964.94;6085719;23;20514;-89
2023/12/19 09:56:49;;;;;;;19.92;9.25;;;;;;;2.23;98.49;100960.38;6062496;23;20018;-91
2023/12/19 09:59:17;;;;;;;23.70;10.18;;;;;;;2.23;98.30;100964.78;6037563;23;20030;-89
2023/12/19 10:01:45;;;;;;;21.80;9.32;;;;;;;2.25;98.25;100971.66;6060535;23;20049;-89
2023/12/19 10:04:16;;;;;;;17.42;8.85;;;;;;;2.27;98.16;100961.16;6086153;23;21030;-88
2023/12/19 10:06:56;;;;;;;20.50;9.50;;;;;;;2.29;97.99;100954.06;6084891;23;20050;-87
2023/12/19 10:09:23;;;;;;;19.20;9.00;;;;;;;2.31;97.74;100949.63;6109782;23;20038;-89
2023/12/19 10:12:06;;;;;;;18.27;8.82;;;;;;;2.30;97.14;100948.78;6037961;23;20351;-89
2023/12/19 10:14:33;;;;;;;24.20;10.05;;;;;;;2.37;97.58;100942.41;6085781;23;20026;-89
2023/12/19 10:17:04;;;;;;;19.15;10.02;;;;;;;2.52;99.96;100930.50;6085785;23;20118;-89
2023/12/19 10:19:33;;;;;;;18.50;8.63;;;;;;;2.54;98.70;100931.28;6110396;23;20018;-90
2023/12/19 10:22:11;;;;;;;16.00;8.75;;;;;;;2.55;97.79;100926.91;6085516;23;20019;-89
2023/12/19 10:24:38;;;;;;;20.98;9.05;;;;;;;2.56;97.62;100921.59;6085548;23;20041;-90
2023/12/19 10:27:06;;;;;;;20.88;9.07;;;;;;;2.56;97.46;100931.22;6086428;23;20462;-90
2023/12/19 10:29:36;;;;;;;17.15;8.32;;;;;;;2.50;97.44;100929.69;6062182;23;20026;-89
2023/12/19 10:32:17;;;;;;;19.30;9.38;;;;;;;2.49;97.48;100927.13;6059795;23;20054;-91
2023/12/19 10:34:44;;;;;;;16.13;7.97;;;;;;;2.51;97.48;100927.91;6083979;23;20018;-89
2023/12/19 10:37:13;;;;;;;18.38;7.95;;;;;;;2.53;97.32;100919.09;6084487;23;20026;-90
2023/12/19 10:39:41;;;;;;;17.27;8.68;;;;;;;2.54;97.54;100922.56;6061276;23;20062;-89
2023/12/19 10:42:11;;;;;;;21.08;10.15;;;;;;;2.53;98.61;100924.34;6061306;23;20025;-89
2023/12/19 10:44:42;;;;;;;22.85;9.98;;;;;;;2.59;98.52;100923.25;6085861;23;20022;-89
2023/12/19 10:47:10;;;;;;;23.70;9.93;;;;;;;2.61;98.32;100931.91;6085226;23;20351;-89
2023/12/19 10:49:38;;;;;;;22.95;9.18;;;;;;;2.63;98.49;100926.63;6109632;23;20769;-91
2023/12/19 10:52:08;;;;;;;18.17;8.27;;;;;;;2.61;98.58;100887.31;6085158;23;20101;-89
2023/12/19 10:54:36;;;;;;;24.25;11.43;;;;;;;2.50;99.77;100898.22;6037486;23;20078;-88
2023/12/19 10:57:16;;;;;;;25.13;10.73;;;;;;;2.55;98.34;100896.28;6085363;23;20022;-89
2023/12/19 11:00:09;;;;;;;21.23;9.55;;;;;;;2.53;98.26;100887.63;6083636;23;20049;-89
2023/12/19 11:02:47;;;;;;;21.65;8.85;;;;;;;2.57;98.55;100886.59;6084269;23;20042;-89
2023/12/19 11:05:30;;;;;;;22.23;10.15;;;;;;;2.52;98.82;100880.69;6108377;23;20097;-89
2023/12/19 11:08:01;;;;;;;20.83;8.97;;;;;;;2.54;98.73;100884.06;6108513;23;20022;-89
2023/12/19 11:10:33;;;;;;;20.63;9.98;;;;;;;2.54;98.72;100870.13;6059279;23;20102;-88
2023/12/19 11:13:00;;;;;;;23.55;10.65;;;;;;;2.52;98.72;100866.69;6060131;23;20042;-89
2023/12/19 11:15:27;;;;;;;23.55;10.95;;;;;;;2.54;98.90;100877.97;6084882;23;20467;-89
2023/12/19 11:17:58;;;;;;;24.55;9.80;;;;;;;2.47;99.07;100868.63;6083800;23;20045;-89
2023/12/19 11:20:52;;;;;;;25.33;10.63;;;;;;;2.42;99.37;100855.72;6108166;23;20026;-89